Time;durP1;ratioP1;P1;durP2;ratioP2;P2;SDS_P1;SDS_P2;PMS_P1;PMS_P2;Temp;Humidity;BMP_temperature;BMP_pressure;BME280_temperature;BME280_humidity;BME280_pressure;Samples;Min_cycle;Max_cycle;Signal;HPM_P1;HPM_P2
2022/01/01 00:02:15;;;;;;;;;55.25;44.50;;;;;11.61;92.06;101682.72;5035904;28;45405;-69
2022/01/01 00:04:42;;;;;;;;;58.50;47.50;;;;;11.61;92.82;101696.78;5041141;28;46148;-69
2022/01/01 00:07:08;;;;;;;;;60.75;45.75;;;;;11.53;92.20;101683.78;5038861;28;45450;-68
2022/01/01 00:09:33;;;;;;;;;53.25;43.75;;;;;11.57;92.67;101702.16;5037467;28;45276;-66
2022/01/01 00:11:59;;;;;;;;;58.25;47.00;;;;;11.57;92.77;101697.78;5038383;28;45466;-67
2022/01/01 00:14:24;;;;;;;;;66.00;52.25;;;;;11.59;92.92;101703.88;5039585;28;45545;-65
2022/01/01 00:16:50;;;;;;;;;50.50;41.00;;;;;11.58;93.02;101699.50;5040189;28;45484;-68
2022/01/01 00:19:15;;;;;;;;;51.50;42.25;;;;;11.62;92.76;101701.16;5040607;28;45689;-68
2022/01/01 00:21:41;;;;;;;;;52.75;43.00;;;;;11.66;92.79;101701.91;5041004;28;45260;-69
2022/01/01 00:24:07;;;;;;;;;63.00;49.00;;;;;11.70;92.82;101693.03;5040207;28;45526;-65
2022/01/01 00:26:32;;;;;;;;;53.75;43.00;;;;;11.76;92.60;101692.88;5041382;28;45355;-68
2022/01/01 00:28:57;;;;;;;;;59.25;46.25;;;;;11.80;92.51;101699.78;5042952;28;45280;-68
2022/01/01 00:31:23;;;;;;;;;62.50;48.25;;;;;11.86;92.31;101695.25;5042847;28;45590;-69
2022/01/01 00:33:48;;;;;;;;;63.00;49.50;;;;;11.88;92.09;101688.16;5041947;28;45388;-66
2022/01/01 00:36:13;;;;;;;;;60.00;48.75;;;;;11.88;92.05;101686.38;5043110;28;45098;-68
2022/01/01 00:38:39;;;;;;;;;52.25;42.25;;;;;11.93;92.37;101689.75;5040559;28;45173;-68
2022/01/01 00:41:04;;;;;;;;;56.00;44.50;;;;;11.97;91.96;101694.03;5039972;28;45219;-64
2022/01/01 00:43:30;;;;;;;;;51.00;39.25;;;;;11.93;91.65;101691.53;5039973;28;46279;-66
2022/01/01 00:45:55;;;;;;;;;55.00;43.75;;;;;11.99;91.58;101692.22;5038993;28;45311;-69
2022/01/01 00:48:20;;;;;;;;;53.75;40.25;;;;;11.94;91.51;101686.22;5039569;28;45643;-63
2022/01/01 00:50:46;;;;;;;;;50.50;40.00;;;;;12.00;91.69;101698.41;5039750;28;45361;-61
2022/01/01 00:53:11;;;;;;;;;55.50;42.00;;;;;12.02;91.34;101700.97;5039714;28;46238;-64
2022/01/01 00:55:36;;;;;;;;;51.25;40.50;;;;;12.04;91.62;101709.72;5038598;28;45657;-69
2022/01/01 00:58:02;;;;;;;;;51.75;42.00;;;;;12.06;91.43;101708.78;5040407;28;45363;-68
2022/01/01 01:00:28;;;;;;;;;52.00;40.50;;;;;12.09;91.60;101703.41;5040481;28;45581;-66
2022/01/01 01:02:53;;;;;;;;;47.50;36.25;;;;;12.12;91.20;101694.53;5039592;28;45667;-70
2022/01/01 01:05:18;;;;;;;;;45.75;38.50;;;;;12.13;91.13;101707.69;5040019;28;45471;-68
2022/01/01 01:07:44;;;;;;;;;49.25;40.50;;;;;12.12;90.69;101695.41;5039902;28;45319;-69
2022/01/01 01:10:11;;;;;;;;;44.25;36.75;;;;;12.12;90.27;101686.63;5039763;28;45528;-66
2022/01/01 01:12:43;;;;;;;;;37.25;34.25;;;;;12.13;90.79;101685.72;5039199;28;46293;-68
2022/01/01 01:15:16;;;;;;;;;48.75;38.75;;;;;12.10;90.72;101686.69;5040158;28;45394;-68
2022/01/01 01:17:42;;;;;;;;;50.00;38.25;;;;;12.08;90.52;101692.91;5040174;28;45311;-69
2022/01/01 01:20:08;;;;;;;;;48.25;39.25;;;;;12.12;90.53;101699.81;5040410;28;45678;-69
2022/01/01 01:22:33;;;;;;;;;52.25;41.25;;;;;12.06;90.51;101684.16;5038924;28;46337;-69
2022/01/01 01:25:00;;;;;;;;;51.75;39.75;;;;;12.05;90.44;101678.03;5039883;28;45360;-70
2022/01/01 01:27:25;;;;;;;;;46.25;39.00;;;;;12.02;90.28;101679.88;5040104;28;45367;-71
2022/01/01 01:29:50;;;;;;;;;69.50;52.25;;;;;12.02;90.36;101683.41;5040386;28;45401;-67
2022/01/01 01:32:16;;;;;;;;;48.75;38.00;;;;;12.00;90.55;101690.50;5040127;28;45426;-67
2022/01/01 01:34:41;;;;;;;;;48.00;37.50;;;;;11.94;90.61;101694.13;5039682;28;45427;-65
2022/01/01 01:37:07;;;;;;;;;46.25;37.00;;;;;11.88;90.44;101686.38;5055709;28;45304;-67
2022/01/01 01:39:32;;;;;;;;;50.50;38.25;;;;;11.83;91.01;101685.66;5039485;28;45558;-67
2022/01/01 01:41:57;;;;;;;;;53.00;42.25;;;;;11.79;91.15;101684.88;5038661;28;46990;-67
2022/01/01 01:44:29;;;;;;;;;49.25;39.50;;;;;11.76;91.35;101684.09;5038730;28;45237;-66
2022/01/01 01:46:54;;;;;;;;;42.00;35.25;;;;;11.70;91.32;101685.13;5038955;28;45394;-62
2022/01/01 01:49:20;;;;;;;;;48.25;39.25;;;;;11.68;91.29;101700.13;5039321;28;45374;-64
2022/01/01 01:51:45;;;;;;;;;42.25;35.50;;;;;11.63;91.61;101687.06;5038870;28;45422;-69
2022/01/01 01:54:13;;;;;;;;;58.75;44.50;;;;;11.59;91.27;101692.44;5039402;28;45422;-66
2022/01/01 01:56:39;;;;;;;;;56.25;40.75;;;;;11.53;91.49;101696.97;5040156;28;45261;-65
2022/01/01 01:59:04;;;;;;;;;50.75;42.00;;;;;11.49;92.08;101689.19;5039163;28;45568;-68
2022/01/01 02:01:30;;;;;;;;;53.00;42.25;;;;;11.45;91.98;101688.41;5042465;28;45197;-65
2022/01/01 02:03:57;;;;;;;;;51.00;41.25;;;;;11.39;92.23;101683.28;5038743;28;45375;-69
2022/01/01 02:06:24;;;;;;;;;51.00;42.75;;;;;11.34;92.37;101687.81;5038905;28;45489;-67
2022/01/01 02:08:51;;;;;;;;;53.75;43.00;;;;;11.28;92.59;101683.59;5039795;28;45425;-63
2022/01/01 02:11:18;;;;;;;;;59.50;47.75;;;;;11.24;92.43;101685.41;5039145;28;46286;-69
2022/01/01 02:18:51;;;;;;;;;62.25;49.25;;;;;11.11;93.23;101689.28;5046059;28;45212;-69
2022/01/01 02:21:17;;;;;;;;;52.75;41.75;;;;;11.06;93.20;101689.38;5044810;28;45725;-70
2022/01/01 02:23:45;;;;;;;;;58.75;44.75;;;;;11.03;93.07;101684.19;5039777;28;45312;-68
2022/01/01 02:26:15;;;;;;;;;56.75;45.25;;;;;11.01;92.92;101682.50;5054531;28;46127;-64
2022/01/01 02:28:41;;;;;;;;;49.75;41.00;;;;;11.02;92.88;101689.50;5038884;28;45378;-67
2022/01/01 02:31:06;;;;;;;;;52.75;42.50;;;;;10.99;93.25;101676.41;5038633;28;46337;-68
2022/01/01 02:33:32;;;;;;;;;53.00;42.25;;;;;10.95;93.25;101667.69;5037559;28;45342;-69
2022/01/01 02:35:58;;;;;;;;;52.50;41.25;;;;;10.93;93.53;101669.50;5038038;28;45457;-68
2022/01/01 02:38:23;;;;;;;;;50.75;41.25;;;;;10.90;93.79;101675.72;5038537;28;45257;-68
2022/01/01 02:40:48;;;;;;;;;54.50;44.00;;;;;10.84;93.82;101660.09;5037895;28;45413;-66
2022/01/01 02:43:14;;;;;;;;;52.50;41.75;;;;;10.80;93.56;101659.28;5038541;28;45310;-69
2022/01/01 02:45:40;;;;;;;;;49.50;40.75;;;;;10.80;93.79;101663.69;5037348;28;45268;-70
2022/01/01 02:48:05;;;;;;;;;56.75;47.00;;;;;10.78;93.87;101654.97;5040276;28;45524;-67
2022/01/01 02:50:31;;;;;;;;;54.50;42.50;;;;;10.76;94.20;101651.50;5038451;28;46210;-70
2022/01/01 02:52:56;;;;;;;;;48.50;40.25;;;;;10.79;94.12;101657.53;5038324;28;45279;-69
2022/01/01 02:55:21;;;;;;;;;58.75;45.75;;;;;10.80;94.53;101663.69;5037655;28;45269;-62
2022/01/01 02:57:47;;;;;;;;;47.00;38.75;;;;;10.77;94.62;101654.09;5038761;28;45492;-67
2022/01/01 03:00:13;;;;;;;;;50.25;39.25;;;;;10.82;94.46;101661.88;5037850;28;46395;-65
2022/01/01 03:02:39;;;;;;;;;48.00;40.50;;;;;10.82;94.53;101661.88;5036407;28;45375;-68
2022/01/01 03:05:06;;;;;;;;;52.25;40.75;;;;;10.86;94.14;101667.94;5038001;28;45335;-69
2022/01/01 03:07:31;;;;;;;;;57.25;45.50;;;;;10.90;94.30;101665.19;5044928;28;44838;-66
2022/01/01 03:09:57;;;;;;;;;51.00;41.00;;;;;10.93;93.81;101674.78;5045995;28;45709;-68
2022/01/01 03:12:22;;;;;;;;;52.50;40.50;;;;;10.94;93.95;101668.59;5041196;28;45280;-60
2022/01/01 03:14:47;;;;;;;;;52.00;42.50;;;;;10.92;93.89;101668.66;5040269;28;45383;-71
2022/01/01 03:17:13;;;;;;;;;55.00;40.50;;;;;10.95;94.06;101670.34;5039796;28;45165;-69
2022/01/01 03:19:38;;;;;;;;;52.25;42.50;;;;;10.98;94.26;101674.69;5040564;28;45969;-69
2022/01/01 03:22:05;;;;;;;;;52.25;41.75;;;;;11.00;93.93;101664.97;5038984;28;45298;-69
2022/01/01 03:24:30;;;;;;;;;50.25;41.25;;;;;10.99;93.97;101669.34;5037729;28;45278;-69
2022/01/01 03:26:56;;;;;;;;;47.50;39.00;;;;;11.00;93.51;101670.25;5038652;28;45185;-70
2022/01/01 03:29:21;;;;;;;;;51.50;40.00;;;;;11.04;93.68;101678.00;5039830;28;45348;-68
2022/01/01 03:31:47;;;;;;;;;49.75;40.25;;;;;11.06;93.45;101681.47;5040182;28;45203;-69
2022/01/01 03:34:12;;;;;;;;;49.00;38.50;;;;;11.07;93.70;101674.44;5039299;28;45520;-70
2022/01/01 03:36:38;;;;;;;;;42.50;33.25;;;;;11.05;93.45;101674.47;5038977;28;45572;-71
2022/01/01 03:39:05;;;;;;;;;47.00;37.25;;;;;11.06;93.11;101670.94;5038496;28;45315;-71
2022/01/01 03:41:31;;;;;;;;;42.50;36.00;;;;;11.07;93.65;101669.19;5038764;28;45433;-69
2022/01/01 03:43:56;;;;;;;;;47.75;38.00;;;;;11.08;93.35;101670.91;5039682;28;45349;-69
2022/01/01 03:46:21;;;;;;;;;46.00;37.50;;;;;11.10;93.38;101663.84;5037513;28;45296;-65
2022/01/01 03:48:47;;;;;;;;;47.50;37.50;;;;;11.11;93.10;101657.66;5036883;28;45839;-66
2022/01/01 03:51:13;;;;;;;;;45.75;36.00;;;;;11.10;92.87;101653.31;5037160;28;45265;-67
2022/01/01 03:53:38;;;;;;;;;43.75;35.25;;;;;11.08;93.04;101655.13;5052010;28;45499;-68
2022/01/01 03:56:05;;;;;;;;;48.50;34.25;;;;;11.07;93.22;101658.66;5037240;28;45402;-69
2022/01/01 03:58:30;;;;;;;;;45.50;35.75;;;;;10.99;93.23;101652.72;5037576;28;45391;-64
2022/01/01 04:00:55;;;;;;;;;41.25;33.25;;;;;10.91;93.11;101653.78;5053676;28;45270;-68
2022/01/01 04:03:21;;;;;;;;;39.75;32.50;;;;;10.90;92.63;101659.06;5038200;28;45450;-65
2022/01/01 04:05:47;;;;;;;;;43.00;35.25;;;;;10.81;93.29;101661.00;5037434;28;45213;-69
2022/01/01 04:08:13;;;;;;;;;39.75;34.00;;;;;10.77;93.12;101661.97;5036810;28;45266;-68
2022/01/01 04:10:39;;;;;;;;;40.00;35.00;;;;;10.74;93.57;101650.69;5037012;28;45269;-70
2022/01/01 04:13:07;;;;;;;;;41.75;36.50;;;;;10.68;93.53;101661.34;5037433;28;45323;-70
2022/01/01 04:15:35;;;;;;;;;40.00;33.25;;;;;10.59;93.59;101649.25;5037394;28;45374;-68
2022/01/01 04:18:05;;;;;;;;;41.00;33.50;;;;;10.50;93.71;101631.91;5037114;28;45948;-61
2022/01/01 04:20:31;;;;;;;;;40.75;33.25;;;;;10.51;94.06;101650.31;5053358;28;45407;-63
2022/01/01 04:22:57;;;;;;;;;34.50;30.75;;;;;10.40;94.05;101638.28;5036935;28;45325;-58
2022/01/01 04:25:23;;;;;;;;;37.75;33.50;;;;;10.43;94.36;101656.63;5039202;28;45533;-69
2022/01/01 04:27:50;;;;;;;;;54.25;43.75;;;;;10.36;94.46;101654.09;5038937;28;48018;-67
2022/01/01 04:30:16;;;;;;;;;47.25;39.00;;;;;10.28;94.20;101642.03;5038357;28;45226;-67
2022/01/01 04:32:41;;;;;;;;;37.25;32.75;;;;;10.32;94.95;101649.81;5035964;28;45240;-69
2022/01/01 04:35:07;;;;;;;;;46.25;36.75;;;;;10.32;94.89;101641.06;5035355;28;45496;-63
2022/01/01 04:37:33;;;;;;;;;44.75;37.25;;;;;10.33;94.81;101642.78;5035323;28;46192;-65
2022/01/01 04:39:59;;;;;;;;;41.50;35.50;;;;;10.33;95.18;101642.78;5035766;28;45437;-67
2022/01/01 04:42:27;;;;;;;;;45.75;34.50;;;;;10.35;94.84;101636.59;5043163;28;45372;-66
2022/01/01 04:44:52;;;;;;;;;43.25;37.25;;;;;10.37;94.89;101647.09;5038037;28;45442;-64
2022/01/01 04:47:18;;;;;;;;;43.50;32.25;;;;;10.33;94.87;101635.75;5035549;28;45354;-63
2022/01/01 04:49:44;;;;;;;;;39.50;34.50;;;;;10.40;94.77;101647.06;5037006;28;45214;-63
2022/01/01 04:52:09;;;;;;;;;43.50;34.00;;;;;10.44;94.46;101650.47;5036246;28;45316;-65
2022/01/01 04:54:39;;;;;;;;;43.00;33.00;;;;;10.47;94.20;101642.50;5035354;28;45302;-68
2022/01/01 04:57:04;;;;;;;;;38.50;31.25;;;;;10.51;94.25;101645.03;5035306;28;46328;-71
2022/01/01 04:59:30;;;;;;;;;44.50;33.75;;;;;10.55;94.09;101640.56;5038845;28;45382;-69
2022/01/01 05:01:56;;;;;;;;;41.25;35.25;;;;;10.59;93.54;101641.38;5038890;28;46160;-68
2022/01/01 05:04:21;;;;;;;;;37.25;33.00;;;;;10.56;94.00;101637.03;5040469;28;45526;-67
2022/01/01 05:06:49;;;;;;;;;43.75;32.75;;;;;10.62;93.57;101647.44;5040283;28;45410;-68
2022/01/01 05:09:15;;;;;;;;;43.25;34.50;;;;;10.62;93.25;101644.81;5038213;28;45289;-70
2022/01/01 05:11:40;;;;;;;;;40.25;32.75;;;;;10.64;93.72;101644.75;5037352;28;45218;-70
2022/01/01 05:14:06;;;;;;;;;35.50;31.75;;;;;10.61;93.31;101650.97;5041848;28;45236;-66
2022/01/01 05:16:31;;;;;;;;;45.25;35.75;;;;;10.59;93.45;101644.00;5041850;28;45210;-70
2022/01/01 05:18:57;;;;;;;;;33.50;31.00;;;;;10.62;93.21;101657.97;5040106;28;45343;-66
2022/01/01 05:21:22;;;;;;;;;39.00;34.50;;;;;10.61;93.12;101658.88;5040494;28;45181;-69
2022/01/01 05:23:47;;;;;;;;;38.50;32.25;;;;;10.62;92.74;101659.72;5041149;28;45256;-69
2022/01/01 05:26:13;;;;;;;;;40.00;32.75;;;;;10.62;93.04;101659.72;5039380;28;46290;-70
2022/01/01 05:28:38;;;;;;;;;40.50;30.75;;;;;10.62;92.56;101665.84;5038303;28;45379;-68
2022/01/01 05:31:04;;;;;;;;;42.00;33.75;;;;;10.63;92.64;101656.19;5038516;28;45339;-67
2022/01/01 05:33:29;;;;;;;;;41.00;33.50;;;;;10.60;92.69;101645.72;5038189;28;45485;-62
2022/01/01 05:35:55;;;;;;;;;39.50;34.50;;;;;10.63;92.38;101654.44;5038220;28;46799;-69
2022/01/01 05:38:20;;;;;;;;;38.50;32.25;;;;;10.63;92.11;101640.38;5037807;28;45331;-65
2022/01/01 05:40:45;;;;;;;;;44.50;34.75;;;;;10.61;92.51;101642.19;5037989;28;45387;-63
2022/01/01 05:43:14;;;;;;;;;41.00;33.00;;;;;10.62;92.48;101636.03;5038082;28;45298;-65
2022/01/01 05:45:43;;;;;;;;;36.75;32.00;;;;;10.59;92.45;101641.38;5037481;28;46195;-60
2022/01/01 05:48:09;;;;;;;;;35.00;29.50;;;;;10.60;92.35;101637.84;5037587;28;45365;-68
2022/01/01 05:50:35;;;;;;;;;31.75;29.75;;;;;10.59;92.69;101628.22;5037894;28;45329;-70
2022/01/01 05:53:01;;;;;;;;;30.75;28.75;;;;;10.58;92.15;101627.31;5038389;28;45338;-63
2022/01/01 05:55:26;;;;;;;;;32.00;28.50;;;;;10.54;92.34;101636.19;5038253;28;46065;-65
2022/01/01 05:57:51;;;;;;;;;30.75;28.25;;;;;10.53;91.89;101634.47;5038099;28;45509;-68
2022/01/01 06:00:17;;;;;;;;;30.25;29.75;;;;;10.51;91.95;101625.75;5038785;28;45342;-67
2022/01/01 06:02:43;;;;;;;;;30.25;28.00;;;;;10.47;92.46;101627.59;5049633;28;45561;-68
2022/01/01 06:05:09;;;;;;;;;29.75;25.75;;;;;10.46;92.85;101625.88;5055756;28;45644;-66
2022/01/01 06:07:35;;;;;;;;;35.25;29.50;;;;;10.50;92.14;101624.91;5056993;28;45375;-64
2022/01/01 06:10:01;;;;;;;;;27.50;23.50;;;;;10.49;92.23;101624.91;5057965;28;45445;-61
2022/01/01 06:12:26;;;;;;;;;31.75;28.25;;;;;10.36;91.83;101608.53;5057452;28;45164;-69
2022/01/01 06:14:52;;;;;;;;;29.25;24.75;;;;;10.37;92.24;101620.78;5056559;28;45434;-68
2022/01/01 06:17:18;;;;;;;;;31.50;28.75;;;;;10.32;92.27;101618.25;5055443;28;45619;-66
2022/01/01 06:19:43;;;;;;;;;36.00;31.50;;;;;10.31;91.80;101624.41;5056747;28;45381;-65
2022/01/01 06:22:08;;;;;;;;;30.25;26.75;;;;;10.28;92.35;101629.72;5056757;28;45558;-68
2022/01/01 06:24:34;;;;;;;;;31.75;28.75;;;;;10.28;92.07;101628.88;5056673;28;45690;-66
2022/01/01 06:26:59;;;;;;;;;29.25;27.25;;;;;10.26;92.24;101625.41;5057295;28;45505;-64
2022/01/01 06:29:25;;;;;;;;;32.00;26.50;;;;;10.24;92.73;101633.34;5056641;28;45413;-70
2022/01/01 06:31:50;;;;;;;;;33.75;30.00;;;;;10.21;92.15;101636.91;5056995;28;45265;-65
2022/01/01 06:34:15;;;;;;;;;35.50;30.00;;;;;10.18;92.85;101628.22;5057311;28;46389;-68
2022/01/01 06:36:40;;;;;;;;;28.75;26.25;;;;;10.21;92.73;101633.41;5057869;28;45240;-69
2022/01/01 06:39:06;;;;;;;;;35.75;28.25;;;;;10.19;92.51;101625.56;5059872;28;45780;-66
2022/01/01 06:41:31;;;;;;;;;30.50;28.50;;;;;10.16;92.39;101620.38;5039674;28;45561;-67
2022/01/01 06:43:57;;;;;;;;;32.25;28.25;;;;;10.20;92.24;101626.41;5056955;28;45528;-69
2022/01/01 06:46:22;;;;;;;;;29.75;26.75;;;;;10.17;92.36;101627.34;5057088;28;45236;-70
2022/01/01 06:48:47;;;;;;;;;34.25;31.75;;;;;10.17;92.27;101618.59;5058516;28;45288;-66
2022/01/01 06:51:14;;;;;;;;;30.75;27.50;;;;;10.16;92.29;101617.75;5057231;28;45750;-63
2022/01/01 06:53:39;;;;;;;;;28.25;26.75;;;;;10.11;92.77;101616.09;5056878;28;47106;-68
2022/01/01 06:56:06;;;;;;;;;29.50;25.25;;;;;10.08;92.48;101617.88;5056550;28;45321;-68
2022/01/01 06:58:33;;;;;;;;;35.75;27.00;;;;;10.04;92.56;101621.47;5057284;28;45250;-66
2022/01/01 07:00:58;;;;;;;;;30.75;28.25;;;;;10.03;92.72;101624.13;5057401;28;45445;-69
2022/01/01 07:03:24;;;;;;;;;31.25;27.25;;;;;9.99;92.94;101612.84;5057100;28;45387;-70
2022/01/01 07:05:49;;;;;;;;;34.75;27.25;;;;;10.04;92.85;101626.75;5062433;28;45484;-66
2022/01/01 07:08:15;;;;;;;;;31.75;29.50;;;;;10.05;92.59;101617.97;5063106;28;45422;-66
2022/01/01 07:10:44;;;;;;;;;31.50;28.25;;;;;10.04;92.83;101610.97;5057933;28;45349;-69
2022/01/01 07:13:10;;;;;;;;;29.75;26.75;;;;;9.92;92.84;101590.22;5057061;28;46183;-63
2022/01/01 07:15:35;;;;;;;;;23.25;19.50;;;;;10.08;92.50;101620.53;5039334;28;45353;-62
2022/01/01 07:18:00;;;;;;;;;30.00;26.50;;;;;10.09;92.75;101630.13;5059968;28;45277;-64
2022/01/01 07:20:26;;;;;;;;;28.00;26.75;;;;;10.08;92.04;101620.53;5056951;28;45578;-69
2022/01/01 07:22:51;;;;;;;;;28.25;27.75;;;;;10.02;92.39;101618.03;5057101;28;46173;-67
2022/01/01 07:25:16;;;;;;;;;30.50;26.50;;;;;9.99;92.06;101615.47;5038439;28;45418;-63
2022/01/01 07:27:43;;;;;;;;;36.75;30.50;;;;;9.93;92.96;101618.22;5038458;28;45331;-66
2022/01/01 07:30:09;;;;;;;;;32.50;27.50;;;;;9.94;92.18;101620.78;5056115;28;45369;-61
2022/01/01 07:32:38;;;;;;;;;30.75;28.75;;;;;9.93;92.44;101623.47;5056236;28;46819;-65
2022/01/01 07:35:04;;;;;;;;;28.25;25.50;;;;;9.92;92.29;101627.84;5056388;28;45314;-67
2022/01/01 07:37:29;;;;;;;;;27.75;26.75;;;;;9.91;92.61;101628.75;5056015;28;45294;-66
2022/01/01 07:39:54;;;;;;;;;28.50;26.25;;;;;9.89;92.29;101635.81;5055619;28;45757;-65
2022/01/01 07:42:20;;;;;;;;;42.25;33.00;;;;;9.84;92.67;101629.78;5055445;28;46293;-64
2022/01/01 07:44:45;;;;;;;;;34.00;29.00;;;;;9.84;92.37;101628.91;5055649;28;45384;-64
2022/01/01 07:47:10;;;;;;;;;35.25;29.75;;;;;9.80;92.84;101630.72;5055861;28;45284;-65
2022/01/01 07:49:36;;;;;;;;;31.00;26.75;;;;;9.79;92.51;101623.75;5056334;28;45732;-63
2022/01/01 07:52:03;;;;;;;;;30.25;28.50;;;;;9.76;92.86;101616.81;5055753;28;46165;-66
2022/01/01 07:54:28;;;;;;;;;32.25;27.25;;;;;9.81;92.57;101618.47;5056068;28;45635;-69
2022/01/01 07:56:53;;;;;;;;;30.25;26.25;;;;;9.78;93.04;101612.38;5057098;28;45483;-67
2022/01/01 07:59:19;;;;;;;;;33.50;26.00;;;;;9.77;92.38;101617.66;5056019;28;45489;-69
2022/01/01 08:01:44;;;;;;;;;32.75;30.50;;;;;9.74;92.49;101633.47;5055902;28;45571;-68
2022/01/01 08:04:10;;;;;;;;;24.75;23.00;;;;;9.67;92.85;101624.00;5042399;28;45487;-67
2022/01/01 08:06:35;;;;;;;;;33.25;29.50;;;;;9.68;92.55;101637.13;5061748;28;45352;-64
2022/01/01 08:09:01;;;;;;;;;33.25;27.25;;;;;9.63;92.78;101637.19;5058460;28;45347;-68
2022/01/01 08:11:27;;;;;;;;;30.25;27.50;;;;;9.65;92.61;101642.44;5056243;28;45343;-65
2022/01/01 08:13:53;;;;;;;;;25.75;25.25;;;;;9.62;93.16;101631.97;5055997;28;45331;-59
2022/01/01 08:16:20;;;;;;;;;32.00;27.25;;;;;9.63;92.80;101631.09;5056399;28;45351;-63
2022/01/01 08:18:45;;;;;;;;;25.00;24.00;;;;;9.53;92.49;101629.50;5060151;28;45533;-64
2022/01/01 08:21:10;;;;;;;;;27.25;25.50;;;;;9.55;92.92;101628.59;5055659;28;46295;-58
2022/01/01 08:23:36;;;;;;;;;26.75;25.00;;;;;9.56;92.81;101624.22;5055881;28;45236;-61
2022/01/01 08:26:01;;;;;;;;;30.75;26.50;;;;;9.56;92.99;101617.19;5055350;28;45272;-59
2022/01/01 08:28:27;;;;;;;;;28.00;24.00;;;;;9.57;93.17;101610.19;5056137;28;45450;-64
2022/01/01 08:30:52;;;;;;;;;19.50;16.75;;;;;9.51;93.00;101595.41;5060191;28;46223;-68
2022/01/01 08:33:18;;;;;;;;;21.50;20.50;;;;;9.59;92.80;101611.03;5062963;28;45216;-66
2022/01/01 08:35:43;;;;;;;;;26.25;23.75;;;;;9.59;93.12;101609.25;5059175;28;45313;-65
2022/01/01 08:38:09;;;;;;;;;22.75;22.25;;;;;9.58;92.78;101615.41;5058878;28;46845;-61
2022/01/01 08:40:34;;;;;;;;;25.00;22.75;;;;;9.58;93.09;101611.91;5058864;28;45437;-67
2022/01/01 08:43:00;;;;;;;;;24.25;22.75;;;;;9.60;93.11;101610.13;5057570;28;45418;-66
2022/01/01 08:45:26;;;;;;;;;26.50;23.50;;;;;9.61;92.85;101617.13;5058660;28;45260;-67
2022/01/01 08:47:51;;;;;;;;;20.50;19.75;;;;;9.58;92.83;101611.91;5058998;28;45500;-68
2022/01/01 08:50:18;;;;;;;;;23.25;21.00;;;;;9.56;92.98;101608.47;5059892;28;45485;-68
2022/01/01 08:52:44;;;;;;;;;24.25;20.50;;;;;9.61;92.80;101611.84;5061801;28;45368;-68
2022/01/01 08:55:09;;;;;;;;;22.75;20.50;;;;;9.61;92.62;101604.81;5059753;28;45268;-62
2022/01/01 08:57:36;;;;;;;;;23.00;18.25;;;;;9.62;92.62;101603.09;5060381;28;45513;-68
2022/01/01 09:00:05;;;;;;;;;25.00;20.50;;;;;9.63;92.46;101602.19;5059123;28;46438;-65
2022/01/01 09:02:31;;;;;;;;;18.50;17.00;;;;;9.64;92.67;101601.28;5058024;28;45414;-68
2022/01/01 09:04:56;;;;;;;;;18.75;16.50;;;;;9.64;92.32;101611.81;5059303;28;45307;-68
2022/01/01 09:07:28;;;;;;;;;25.50;21.50;;;;;9.64;92.22;101617.06;5059775;28;45417;-64
2022/01/01 09:09:54;;;;;;;;;19.25;15.50;;;;;9.61;92.89;101614.50;5058044;28;45371;-63
2022/01/01 09:12:19;;;;;;;;;22.50;21.00;;;;;9.62;92.86;101618.84;5057953;28;46350;-64
2022/01/01 09:14:44;;;;;;;;;28.50;21.50;;;;;9.67;92.60;101614.38;5057928;28;45399;-65
2022/01/01 09:17:10;;;;;;;;;19.25;19.00;;;;;9.72;92.19;101609.88;5040917;28;45715;-63
2022/01/01 09:19:35;;;;;;;;;20.75;18.75;;;;;9.73;92.17;101594.97;5057728;28;45923;-65
2022/01/01 09:22:01;;;;;;;;;20.25;17.75;;;;;9.77;92.34;101589.63;5057666;28;45837;-61
2022/01/01 09:24:26;;;;;;;;;21.75;18.00;;;;;9.77;92.08;101584.38;5058053;28;45293;-64
2022/01/01 09:26:51;;;;;;;;;24.25;19.75;;;;;9.85;91.93;101580.72;5057893;28;45311;-65
2022/01/01 09:29:18;;;;;;;;;24.00;22.00;;;;;9.87;92.00;101586.81;5057169;28;46116;-65
2022/01/01 09:31:45;;;;;;;;;19.25;19.00;;;;;9.88;91.72;101578.03;5057314;28;45411;-66
2022/01/01 09:34:11;;;;;;;;;23.50;21.25;;;;;9.87;91.56;101565.78;5058553;28;45242;-68
2022/01/01 09:36:36;;;;;;;;;24.75;22.00;;;;;9.92;91.74;101580.53;5058961;28;45473;-68
2022/01/01 09:39:03;;;;;;;;;33.25;29.00;;;;;9.94;91.35;101570.84;5057703;28;46437;-66
2022/01/01 09:41:29;;;;;;;;;24.00;20.50;;;;;9.94;91.34;101567.38;5057589;28;45588;-68
2022/01/01 09:43:56;;;;;;;;;25.75;23.25;;;;;9.93;91.51;101563.03;5054309;28;45522;-68
2022/01/01 09:46:22;;;;;;;;;20.00;18.75;;;;;9.90;91.66;101544.69;5058093;28;45284;-66
2022/01/01 09:48:49;;;;;;;;;24.25;19.50;;;;;9.97;91.50;101567.31;5057200;28;47760;-67
2022/01/01 09:51:15;;;;;;;;;21.50;18.25;;;;;9.98;91.25;101571.69;5057536;28;45380;-70
2022/01/01 09:53:40;;;;;;;;;23.25;19.50;;;;;10.01;91.36;101570.72;5057467;28;45553;-68
2022/01/01 09:56:05;;;;;;;;;21.50;19.00;;;;;10.03;91.16;101567.19;5058068;28;45393;-60
2022/01/01 09:58:34;;;;;;;;;20.25;19.00;;;;;10.05;91.12;101568.00;5057420;28;45891;-67
2022/01/01 10:01:00;;;;;;;;;20.25;19.50;;;;;10.08;90.96;101559.22;5057938;28;45405;-66
2022/01/01 10:03:43;;;;;;;;;22.00;19.50;;;;;10.13;91.22;101564.34;5057314;28;45510;-66
2022/01/01 10:06:14;;;;;;;;;22.00;19.50;;;;;10.16;90.79;101567.78;5057799;28;45430;-66
2022/01/01 10:08:56;;;;;;;;;23.50;22.25;;;;;10.19;90.70;101565.09;5057848;28;45259;-64
2022/01/01 10:11:22;;;;;;;;;22.00;19.75;;;;;10.23;90.88;101563.22;5057223;28;45545;-68
2022/01/01 10:13:48;;;;;;;;;24.75;19.75;;;;;10.26;90.15;101564.94;5058102;28;45326;-68
2022/01/01 10:16:15;;;;;;;;;20.75;18.25;;;;;10.11;90.13;101538.09;5058636;28;45378;-67
2022/01/01 10:18:45;;;;;;;;;22.25;21.75;;;;;10.28;90.02;101576.28;5057478;28;46371;-66
2022/01/01 10:21:19;;;;;;;;;24.00;21.50;;;;;10.30;89.73;101575.34;5056845;28;45530;-60
2022/01/01 10:23:52;;;;;;;;;15.75;15.50;;;;;10.34;90.18;101576.16;5058064;28;45437;-61
2022/01/01 10:29:18;;;;;;;;;26.25;24.00;;;;;10.44;89.74;101566.28;5058457;28;45481;-60
2022/01/01 10:32:00;;;;;;;;;19.00;18.50;;;;;10.49;89.65;101564.41;5056837;28;45261;-64
2022/01/01 10:34:35;;;;;;;;;24.75;21.00;;;;;10.55;89.36;101564.25;5056672;28;45906;-64
2022/01/01 10:37:02;;;;;;;;;19.25;16.50;;;;;10.62;89.14;101565.00;5056511;28;45307;-65
2022/01/01 10:39:28;;;;;;;;;22.00;18.00;;;;;10.65;88.97;101563.16;5038983;28;46658;-67
2022/01/01 10:41:59;;;;;;;;;14.50;14.50;;;;;10.77;88.95;101569.88;5056350;28;45385;-65
2022/01/01 10:44:41;;;;;;;;;19.00;17.75;;;;;10.86;88.04;101570.53;5056949;28;45390;-66
2022/01/01 10:47:14;;;;;;;;;19.00;15.75;;;;;10.90;87.87;101574.81;5057257;28;45273;-66
2022/01/01 10:52:28;;;;;;;;;15.50;15.50;;;;;11.00;87.55;101570.19;5057433;28;45726;-65
2022/01/01 10:54:54;;;;;;;;;17.75;16.00;;;;;11.04;87.28;101563.94;5058498;28;45300;-70
2022/01/01 10:57:27;;;;;;;;;16.25;13.25;;;;;11.09;86.87;101568.16;5057037;28;45507;-68
2022/01/01 11:00:06;;;;;;;;;19.75;17.50;;;;;11.13;86.43;101565.44;5060570;28;46994;-70
2022/01/01 11:02:36;;;;;;;;;13.50;13.50;;;;;11.14;86.10;101561.94;5059712;28;45347;-66
2022/01/01 11:05:03;;;;;;;;;14.25;13.75;;;;;11.22;86.30;101566.09;5057589;28;45429;-68
2022/01/01 11:07:30;;;;;;;;;14.25;13.00;;;;;11.28;85.77;101577.34;5057057;28;45344;-70
2022/01/01 11:09:56;;;;;;;;;14.50;14.50;;;;;11.29;85.13;101558.00;5056662;28;46408;-70
2022/01/01 11:12:24;;;;;;;;;20.50;16.00;;;;;11.36;84.98;101570.09;5056430;28;45438;-70
2022/01/01 11:14:53;;;;;;;;;16.75;15.50;;;;;11.40;84.41;101558.56;5056735;28;45313;-60
2022/01/01 11:17:19;;;;;;;;;15.75;14.00;;;;;11.45;85.13;101546.13;5057106;28;45255;-69
2022/01/01 11:19:45;;;;;;;;;14.50;12.25;;;;;11.47;84.91;101535.56;5059707;28;45434;-69